sensor_id;sensor_type;location;lat;lon;timestamp;temperature;humidity
11320;DHT22;5715;48.234;14.320;2023-08-06T00:02:34;15.80;99.90
11320;DHT22;5715;48.234;14.320;2023-08-06T00:05:22;15.80;99.90
11320;DHT22;5715;48.234;14.320;2023-08-06T00:08:10;15.80;99.90
11320;DHT22;5715;48.234;14.320;2023-08-06T00:10:57;15.80;99.90
11320;DHT22;5715;48.234;14.320;2023-08-06T00:13:45;15.80;99.90
11320;DHT22;5715;48.234;14.320;2023-08-06T00:16:33;15.80;99.90
11320;DHT22;5715;48.234;14.320;2023-08-06T00:19:20;15.80;99.90
11320;DHT22;5715;48.234;14.320;2023-08-06T00:22:08;15.80;99.90
11320;DHT22;5715;48.234;14.320;2023-08-06T00:24:55;15.80;99.90
11320;DHT22;5715;48.234;14.320;2023-08-06T00:27:44;15.90;99.90
11320;DHT22;5715;48.234;14.320;2023-08-06T00:30:32;15.90;99.90
11320;DHT22;5715;48.234;14.320;2023-08-06T00:33:20;15.90;99.90
11320;DHT22;5715;48.234;14.320;2023-08-06T00:36:08;15.90;99.90
11320;DHT22;5715;48.234;14.320;2023-08-06T00:38:56;15.90;99.90
11320;DHT22;5715;48.234;14.320;2023-08-06T00:41:43;15.90;99.90
11320;DHT22;5715;48.234;14.320;2023-08-06T00:44:31;15.90;99.90
11320;DHT22;5715;48.234;14.320;2023-08-06T00:47:18;15.80;99.90
11320;DHT22;5715;48.234;14.320;2023-08-06T00:50:07;15.80;99.90
11320;DHT22;5715;48.234;14.320;2023-08-06T00:52:55;15.90;99.90
11320;DHT22;5715;48.234;14.320;2023-08-06T00:55:44;15.90;99.90
11320;DHT22;5715;48.234;14.320;2023-08-06T00:58:33;15.90;99.90
11320;DHT22;5715;48.234;14.320;2023-08-06T01:01:22;15.90;99.90
11320;DHT22;5715;48.234;14.320;2023-08-06T01:04:10;15.90;99.90
11320;DHT22;5715;48.234;14.320;2023-08-06T01:10:50;15.90;99.90
11320;DHT22;5715;48.234;14.320;2023-08-06T01:13:46;15.90;99.90
11320;DHT22;5715;48.234;14.320;2023-08-06T01:16:37;15.90;99.90
11320;DHT22;5715;48.234;14.320;2023-08-06T01:19:27;15.90;99.90
11320;DHT22;5715;48.234;14.320;2023-08-06T01:22:15;15.90;99.90
11320;DHT22;5715;48.234;14.320;2023-08-06T01:25:03;15.90;99.90
11320;DHT22;5715;48.234;14.320;2023-08-06T01:27:53;16.00;99.90
11320;DHT22;5715;48.234;14.320;2023-08-06T01:30:48;16.00;99.90
11320;DHT22;5715;48.234;14.320;2023-08-06T01:33:41;16.00;99.90
11320;DHT22;5715;48.234;14.320;2023-08-06T01:36:32;16.00;99.90
11320;DHT22;5715;48.234;14.320;2023-08-06T01:39:21;16.00;99.90
11320;DHT22;5715;48.234;14.320;2023-08-06T01:42:08;16.00;99.90
11320;DHT22;5715;48.234;14.320;2023-08-06T01:44:56;16.00;99.90
11320;DHT22;5715;48.234;14.320;2023-08-06T01:47:44;16.00;99.90
11320;DHT22;5715;48.234;14.320;2023-08-06T01:50:31;16.00;99.90
11320;DHT22;5715;48.234;14.320;2023-08-06T01:53:19;16.00;99.90
11320;DHT22;5715;48.234;14.320;2023-08-06T01:56:06;15.90;99.90
11320;DHT22;5715;48.234;14.320;2023-08-06T01:58:54;15.90;99.90
11320;DHT22;5715;48.234;14.320;2023-08-06T02:01:41;15.80;99.90
11320;DHT22;5715;48.234;14.320;2023-08-06T02:04:29;15.80;99.90
11320;DHT22;5715;48.234;14.320;2023-08-06T02:07:17;15.80;99.90
11320;DHT22;5715;48.234;14.320;2023-08-06T02:10:05;15.70;99.90
11320;DHT22;5715;48.234;14.320;2023-08-06T02:12:53;15.70;99.90
11320;DHT22;5715;48.234;14.320;2023-08-06T02:15:44;15.70;99.90
11320;DHT22;5715;48.234;14.320;2023-08-06T02:18:34;15.70;99.90
11320;DHT22;5715;48.234;14.320;2023-08-06T02:21:22;15.70;99.90
11320;DHT22;5715;48.234;14.320;2023-08-06T02:24:10;15.70;99.90
11320;DHT22;5715;48.234;14.320;2023-08-06T02:26:57;15.70;99.90
11320;DHT22;5715;48.234;14.320;2023-08-06T02:29:45;15.70;99.90
11320;DHT22;5715;48.234;14.320;2023-08-06T02:32:36;15.60;99.90
11320;DHT22;5715;48.234;14.320;2023-08-06T02:35:23;15.60;99.90
11320;DHT22;5715;48.234;14.320;2023-08-06T02:38:11;15.60;99.90
11320;DHT22;5715;48.234;14.320;2023-08-06T02:40:59;15.50;99.90
11320;DHT22;5715;48.234;14.320;2023-08-06T02:43:50;15.50;99.90
11320;DHT22;5715;48.234;14.320;2023-08-06T02:46:37;15.50;99.90
11320;DHT22;5715;48.234;14.320;2023-08-06T02:49:25;15.40;99.90
11320;DHT22;5715;48.234;14.320;2023-08-06T02:52:13;15.40;99.90
11320;DHT22;5715;48.234;14.320;2023-08-06T02:55:00;15.40;99.90
11320;DHT22;5715;48.234;14.320;2023-08-06T02:57:48;15.40;99.90
11320;DHT22;5715;48.234;14.320;2023-08-06T03:00:35;15.30;99.90
11320;DHT22;5715;48.234;14.320;2023-08-06T03:03:23;15.30;99.90
11320;DHT22;5715;48.234;14.320;2023-08-06T03:06:10;15.30;99.90
11320;DHT22;5715;48.234;14.320;2023-08-06T03:08:58;15.30;99.90
11320;DHT22;5715;48.234;14.320;2023-08-06T03:11:45;15.30;99.90
11320;DHT22;5715;48.234;14.320;2023-08-06T03:14:33;15.30;99.90
11320;DHT22;5715;48.234;14.320;2023-08-06T03:17:20;15.30;99.90
11320;DHT22;5715;48.234;14.320;2023-08-06T03:20:08;15.30;99.90
11320;DHT22;5715;48.234;14.320;2023-08-06T03:22:56;15.20;99.90
11320;DHT22;5715;48.234;14.320;2023-08-06T03:25:44;15.30;99.90
11320;DHT22;5715;48.234;14.320;2023-08-06T03:28:32;15.20;99.90
11320;DHT22;5715;48.234;14.320;2023-08-06T03:31:19;15.20;99.90
11320;DHT22;5715;48.234;14.320;2023-08-06T03:34:07;15.20;99.90
11320;DHT22;5715;48.234;14.320;2023-08-06T03:36:54;15.20;99.90
11320;DHT22;5715;48.234;14.320;2023-08-06T03:39:42;15.20;99.90
11320;DHT22;5715;48.234;14.320;2023-08-06T03:42:29;15.20;99.90
11320;DHT22;5715;48.234;14.320;2023-08-06T03:45:17;15.20;99.90
11320;DHT22;5715;48.234;14.320;2023-08-06T03:48:04;15.20;99.90
11320;DHT22;5715;48.234;14.320;2023-08-06T03:50:55;15.30;99.90
11320;DHT22;5715;48.234;14.320;2023-08-06T03:53:44;15.30;99.90
11320;DHT22;5715;48.234;14.320;2023-08-06T03:56:31;15.30;99.90
11320;DHT22;5715;48.234;14.320;2023-08-06T03:59:22;15.30;99.90
11320;DHT22;5715;48.234;14.320;2023-08-06T04:02:12;15.30;99.90
11320;DHT22;5715;48.234;14.320;2023-08-06T04:05:01;15.30;99.90
11320;DHT22;5715;48.234;14.320;2023-08-06T04:07:48;15.30;99.90
11320;DHT22;5715;48.234;14.320;2023-08-06T04:10:36;15.30;99.90
11320;DHT22;5715;48.234;14.320;2023-08-06T04:13:24;15.30;99.90
11320;DHT22;5715;48.234;14.320;2023-08-06T04:16:11;15.40;99.90
11320;DHT22;5715;48.234;14.320;2023-08-06T04:19:00;15.30;99.90
11320;DHT22;5715;48.234;14.320;2023-08-06T04:21:48;15.30;99.90
11320;DHT22;5715;48.234;14.320;2023-08-06T04:24:35;15.30;99.90
11320;DHT22;5715;48.234;14.320;2023-08-06T04:27:23;15.30;99.90
11320;DHT22;5715;48.234;14.320;2023-08-06T04:30:10;15.20;99.90
11320;DHT22;5715;48.234;14.320;2023-08-06T04:32:59;15.10;99.90
11320;DHT22;5715;48.234;14.320;2023-08-06T04:35:47;15.10;99.90
11320;DHT22;5715;48.234;14.320;2023-08-06T04:38:34;15.10;99.90
11320;DHT22;5715;48.234;14.320;2023-08-06T04:41:22;15.10;99.90
11320;DHT22;5715;48.234;14.320;2023-08-06T04:44:10;15.00;99.90
11320;DHT22;5715;48.234;14.320;2023-08-06T04:46:57;15.00;99.90
11320;DHT22;5715;48.234;14.320;2023-08-06T04:49:45;15.00;99.90
11320;DHT22;5715;48.234;14.320;2023-08-06T04:52:33;15.00;99.90
11320;DHT22;5715;48.234;14.320;2023-08-06T04:55:20;15.00;99.90
11320;DHT22;5715;48.234;14.320;2023-08-06T04:58:10;15.00;99.90
11320;DHT22;5715;48.234;14.320;2023-08-06T05:00:57;14.90;99.90
11320;DHT22;5715;48.234;14.320;2023-08-06T05:03:46;14.90;99.90
11320;DHT22;5715;48.234;14.320;2023-08-06T05:06:34;15.00;99.90
11320;DHT22;5715;48.234;14.320;2023-08-06T05:09:22;14.90;99.90
11320;DHT22;5715;48.234;14.320;2023-08-06T05:12:09;14.90;99.90
11320;DHT22;5715;48.234;14.320;2023-08-06T05:14:57;14.90;99.90
11320;DHT22;5715;48.234;14.320;2023-08-06T05:17:44;14.90;99.90
11320;DHT22;5715;48.234;14.320;2023-08-06T05:20:36;14.80;99.90
11320;DHT22;5715;48.234;14.320;2023-08-06T05:23:24;14.80;99.90
11320;DHT22;5715;48.234;14.320;2023-08-06T05:26:12;14.80;99.90
11320;DHT22;5715;48.234;14.320;2023-08-06T05:29:01;14.80;99.90
11320;DHT22;5715;48.234;14.320;2023-08-06T05:31:49;14.80;99.90
11320;DHT22;5715;48.234;14.320;2023-08-06T05:34:37;14.80;99.90
11320;DHT22;5715;48.234;14.320;2023-08-06T05:37:24;14.80;99.90
11320;DHT22;5715;48.234;14.320;2023-08-06T05:40:12;14.70;99.90
11320;DHT22;5715;48.234;14.320;2023-08-06T05:43:00;14.70;99.90
11320;DHT22;5715;48.234;14.320;2023-08-06T05:45:49;14.80;99.90
11320;DHT22;5715;48.234;14.320;2023-08-06T05:48:37;14.70;99.90
11320;DHT22;5715;48.234;14.320;2023-08-06T05:51:26;14.70;99.90
11320;DHT22;5715;48.234;14.320;2023-08-06T05:54:14;14.80;99.90
11320;DHT22;5715;48.234;14.320;2023-08-06T05:57:01;14.80;99.90
11320;DHT22;5715;48.234;14.320;2023-08-06T05:59:49;14.80;99.90
11320;DHT22;5715;48.234;14.320;2023-08-06T06:02:36;14.90;99.90
11320;DHT22;5715;48.234;14.320;2023-08-06T06:05:24;14.90;99.90
11320;DHT22;5715;48.234;14.320;2023-08-06T06:08:11;14.90;99.90
11320;DHT22;5715;48.234;14.320;2023-08-06T06:10:59;15.00;99.90
11320;DHT22;5715;48.234;14.320;2023-08-06T06:13:47;15.00;99.90
11320;DHT22;5715;48.234;14.320;2023-08-06T06:16:38;15.10;99.90
11320;DHT22;5715;48.234;14.320;2023-08-06T06:19:25;15.10;99.90
11320;DHT22;5715;48.234;14.320;2023-08-06T06:22:15;15.10;99.90
11320;DHT22;5715;48.234;14.320;2023-08-06T06:25:03;15.10;99.90
11320;DHT22;5715;48.234;14.320;2023-08-06T06:27:51;15.10;99.90
11320;DHT22;5715;48.234;14.320;2023-08-06T06:30:38;15.10;99.90
11320;DHT22;5715;48.234;14.320;2023-08-06T06:33:26;15.20;99.90
11320;DHT22;5715;48.234;14.320;2023-08-06T06:36:13;15.20;99.90
11320;DHT22;5715;48.234;14.320;2023-08-06T06:39:03;15.30;99.90
11320;DHT22;5715;48.234;14.320;2023-08-06T06:41:50;15.30;99.90
11320;DHT22;5715;48.234;14.320;2023-08-06T06:44:38;15.50;99.90
11320;DHT22;5715;48.234;14.320;2023-08-06T06:47:26;15.60;99.90
11320;DHT22;5715;48.234;14.320;2023-08-06T06:50:14;15.70;99.90
11320;DHT22;5715;48.234;14.320;2023-08-06T06:53:01;15.90;99.90
11320;DHT22;5715;48.234;14.320;2023-08-06T06:55:49;16.00;99.90
11320;DHT22;5715;48.234;14.320;2023-08-06T06:58:37;16.10;99.90
11320;DHT22;5715;48.234;14.320;2023-08-06T07:01:26;16.10;99.90
11320;DHT22;5715;48.234;14.320;2023-08-06T07:04:14;16.10;99.90
11320;DHT22;5715;48.234;14.320;2023-08-06T07:07:07;16.20;99.90
11320;DHT22;5715;48.234;14.320;2023-08-06T07:09:55;16.30;99.90
11320;DHT22;5715;48.234;14.320;2023-08-06T07:12:42;16.30;99.90
11320;DHT22;5715;48.234;14.320;2023-08-06T07:15:30;16.40;99.90
11320;DHT22;5715;48.234;14.320;2023-08-06T07:18:17;16.40;99.90
11320;DHT22;5715;48.234;14.320;2023-08-06T07:21:05;16.40;99.90
11320;DHT22;5715;48.234;14.320;2023-08-06T07:23:53;16.40;99.90
11320;DHT22;5715;48.234;14.320;2023-08-06T07:26:41;16.40;99.90
11320;DHT22;5715;48.234;14.320;2023-08-06T07:29:29;16.40;99.90
11320;DHT22;5715;48.234;14.320;2023-08-06T07:32:16;16.30;99.90
11320;DHT22;5715;48.234;14.320;2023-08-06T07:35:04;16.20;99.90
11320;DHT22;5715;48.234;14.320;2023-08-06T07:37:54;16.10;99.90
11320;DHT22;5715;48.234;14.320;2023-08-06T07:40:45;16.00;99.90
11320;DHT22;5715;48.234;14.320;2023-08-06T07:43:32;15.90;99.90
11320;DHT22;5715;48.234;14.320;2023-08-06T07:46:20;15.90;99.90
11320;DHT22;5715;48.234;14.320;2023-08-06T07:49:09;15.80;99.90
11320;DHT22;5715;48.234;14.320;2023-08-06T07:51:58;15.80;99.90
11320;DHT22;5715;48.234;14.320;2023-08-06T07:54:45;15.80;99.90
11320;DHT22;5715;48.234;14.320;2023-08-06T07:57:33;15.70;99.90
11320;DHT22;5715;48.234;14.320;2023-08-06T08:00:21;15.60;99.90
11320;DHT22;5715;48.234;14.320;2023-08-06T08:03:09;15.60;99.90
11320;DHT22;5715;48.234;14.320;2023-08-06T08:05:56;15.60;99.90
11320;DHT22;5715;48.234;14.320;2023-08-06T08:08:47;15.70;99.90
11320;DHT22;5715;48.234;14.320;2023-08-06T08:11:35;15.60;99.90
11320;DHT22;5715;48.234;14.320;2023-08-06T08:14:23;15.60;99.90
11320;DHT22;5715;48.234;14.320;2023-08-06T08:17:11;15.60;99.90
11320;DHT22;5715;48.234;14.320;2023-08-06T08:19:59;15.70;99.90
11320;DHT22;5715;48.234;14.320;2023-08-06T08:22:47;15.70;99.90
11320;DHT22;5715;48.234;14.320;2023-08-06T08:25:34;15.70;99.90
11320;DHT22;5715;48.234;14.320;2023-08-06T08:28:22;15.70;99.90
11320;DHT22;5715;48.234;14.320;2023-08-06T08:31:10;15.70;99.90
11320;DHT22;5715;48.234;14.320;2023-08-06T08:33:59;15.70;99.90
11320;DHT22;5715;48.234;14.320;2023-08-06T08:36:48;15.70;99.90
11320;DHT22;5715;48.234;14.320;2023-08-06T08:39:37;15.70;99.90
11320;DHT22;5715;48.234;14.320;2023-08-06T08:42:24;15.80;99.90
11320;DHT22;5715;48.234;14.320;2023-08-06T08:45:14;15.80;99.90
11320;DHT22;5715;48.234;14.320;2023-08-06T08:48:02;15.80;99.90
11320;DHT22;5715;48.234;14.320;2023-08-06T08:50:50;15.70;99.90
11320;DHT22;5715;48.234;14.320;2023-08-06T08:53:39;15.70;99.90
11320;DHT22;5715;48.234;14.320;2023-08-06T08:56:26;15.80;99.90
11320;DHT22;5715;48.234;14.320;2023-08-06T08:59:14;15.80;99.90
11320;DHT22;5715;48.234;14.320;2023-08-06T09:02:02;15.80;99.90
11320;DHT22;5715;48.234;14.320;2023-08-06T09:04:52;15.80;99.90
11320;DHT22;5715;48.234;14.320;2023-08-06T09:07:47;15.90;99.90
11320;DHT22;5715;48.234;14.320;2023-08-06T09:10:36;16.00;99.90
11320;DHT22;5715;48.234;14.320;2023-08-06T09:13:25;16.00;99.90
11320;DHT22;5715;48.234;14.320;2023-08-06T09:16:13;16.10;99.90
11320;DHT22;5715;48.234;14.320;2023-08-06T09:19:11;16.30;99.90
11320;DHT22;5715;48.234;14.320;2023-08-06T09:22:05;16.40;99.90
11320;DHT22;5715;48.234;14.320;2023-08-06T09:24:58;16.50;99.90
11320;DHT22;5715;48.234;14.320;2023-08-06T09:27:46;16.80;99.90
11320;DHT22;5715;48.234;14.320;2023-08-06T09:30:36;16.80;99.90
11320;DHT22;5715;48.234;14.320;2023-08-06T09:33:24;17.00;99.90
11320;DHT22;5715;48.234;14.320;2023-08-06T09:36:14;17.00;99.90
11320;DHT22;5715;48.234;14.320;2023-08-06T09:39:12;17.00;99.90
11320;DHT22;5715;48.234;14.320;2023-08-06T09:42:04;17.00;99.90
11320;DHT22;5715;48.234;14.320;2023-08-06T09:44:52;17.10;99.90
11320;DHT22;5715;48.234;14.320;2023-08-06T09:47:45;17.20;99.90
11320;DHT22;5715;48.234;14.320;2023-08-06T09:50:35;17.40;99.90
11320;DHT22;5715;48.234;14.320;2023-08-06T09:53:24;17.60;99.90
11320;DHT22;5715;48.234;14.320;2023-08-06T09:56:13;17.50;99.90
11320;DHT22;5715;48.234;14.320;2023-08-06T09:59:04;17.60;99.90
11320;DHT22;5715;48.234;14.320;2023-08-06T10:01:54;17.70;99.90
11320;DHT22;5715;48.234;14.320;2023-08-06T10:04:44;17.90;99.90
11320;DHT22;5715;48.234;14.320;2023-08-06T10:07:43;17.90;99.90
11320;DHT22;5715;48.234;14.320;2023-08-06T10:10:32;18.10;99.90
11320;DHT22;5715;48.234;14.320;2023-08-06T10:13:22;18.10;99.90
11320;DHT22;5715;48.234;14.320;2023-08-06T10:16:11;18.40;99.90
11320;DHT22;5715;48.234;14.320;2023-08-06T10:18:59;18.40;99.90
11320;DHT22;5715;48.234;14.320;2023-08-06T10:25:00;18.80;99.90
11320;DHT22;5715;48.234;14.320;2023-08-06T10:30:46;18.90;99.90
11320;DHT22;5715;48.234;14.320;2023-08-06T10:33:45;19.00;99.90
11320;DHT22;5715;48.234;14.320;2023-08-06T10:36:34;19.00;99.90
11320;DHT22;5715;48.234;14.320;2023-08-06T10:39:22;19.10;99.90
11320;DHT22;5715;48.234;14.320;2023-08-06T10:42:35;19.20;99.90
11320;DHT22;5715;48.234;14.320;2023-08-06T10:45:24;19.10;99.90
11320;DHT22;5715;48.234;14.320;2023-08-06T10:51:25;19.20;99.90
11320;DHT22;5715;48.234;14.320;2023-08-06T10:54:14;19.30;99.90
11320;DHT22;5715;48.234;14.320;2023-08-06T10:57:09;19.40;99.90
11320;DHT22;5715;48.234;14.320;2023-08-06T10:59:57;19.50;99.90
11320;DHT22;5715;48.234;14.320;2023-08-06T11:03:03;19.00;99.90
11320;DHT22;5715;48.234;14.320;2023-08-06T11:05:51;18.40;99.90
11320;DHT22;5715;48.234;14.320;2023-08-06T11:08:47;18.10;99.90
11320;DHT22;5715;48.234;14.320;2023-08-06T11:11:37;18.10;99.90
11320;DHT22;5715;48.234;14.320;2023-08-06T11:14:27;18.60;99.90
11320;DHT22;5715;48.234;14.320;2023-08-06T11:17:14;18.90;99.90
11320;DHT22;5715;48.234;14.320;2023-08-06T11:20:04;19.20;99.90
11320;DHT22;5715;48.234;14.320;2023-08-06T11:22:52;19.40;99.90
11320;DHT22;5715;48.234;14.320;2023-08-06T11:25:46;19.50;99.90
11320;DHT22;5715;48.234;14.320;2023-08-06T11:28:33;19.80;99.90
11320;DHT22;5715;48.234;14.320;2023-08-06T11:31:22;20.20;99.90
11320;DHT22;5715;48.234;14.320;2023-08-06T11:34:11;20.70;99.90
11320;DHT22;5715;48.234;14.320;2023-08-06T11:36:59;21.00;99.90
11320;DHT22;5715;48.234;14.320;2023-08-06T11:39:47;21.10;99.90
11320;DHT22;5715;48.234;14.320;2023-08-06T11:42:38;20.70;99.90
11320;DHT22;5715;48.234;14.320;2023-08-06T11:45:25;20.50;99.90
11320;DHT22;5715;48.234;14.320;2023-08-06T11:48:13;20.20;99.90
11320;DHT22;5715;48.234;14.320;2023-08-06T11:51:01;20.10;99.90
11320;DHT22;5715;48.234;14.320;2023-08-06T11:53:58;20.00;99.90
11320;DHT22;5715;48.234;14.320;2023-08-06T11:56:46;19.80;99.90
11320;DHT22;5715;48.234;14.320;2023-08-06T11:59:33;19.90;99.90
11320;DHT22;5715;48.234;14.320;2023-08-06T12:02:21;20.10;99.90
11320;DHT22;5715;48.234;14.320;2023-08-06T12:05:28;20.00;99.90
11320;DHT22;5715;48.234;14.320;2023-08-06T12:08:17;19.80;99.90
11320;DHT22;5715;48.234;14.320;2023-08-06T12:11:05;19.50;99.90
11320;DHT22;5715;48.234;14.320;2023-08-06T12:13:54;19.20;99.90
11320;DHT22;5715;48.234;14.320;2023-08-06T12:16:43;19.10;99.90
11320;DHT22;5715;48.234;14.320;2023-08-06T12:19:31;19.10;99.90
11320;DHT22;5715;48.234;14.320;2023-08-06T12:22:19;19.10;99.90
11320;DHT22;5715;48.234;14.320;2023-08-06T12:25:13;19.30;99.90
11320;DHT22;5715;48.234;14.320;2023-08-06T12:28:01;19.60;99.90
11320;DHT22;5715;48.234;14.320;2023-08-06T12:30:49;19.70;99.90
11320;DHT22;5715;48.234;14.320;2023-08-06T12:33:37;19.40;99.90
11320;DHT22;5715;48.234;14.320;2023-08-06T12:36:25;18.90;99.90
11320;DHT22;5715;48.234;14.320;2023-08-06T12:39:13;18.50;99.90
11320;DHT22;5715;48.234;14.320;2023-08-06T12:42:05;17.80;99.90
11320;DHT22;5715;48.234;14.320;2023-08-06T12:44:56;17.20;99.90
11320;DHT22;5715;48.234;14.320;2023-08-06T12:47:43;16.80;99.90
11320;DHT22;5715;48.234;14.320;2023-08-06T12:50:31;16.50;99.90
11320;DHT22;5715;48.234;14.320;2023-08-06T12:53:20;16.20;99.90
11320;DHT22;5715;48.234;14.320;2023-08-06T12:56:09;16.10;99.90
11320;DHT22;5715;48.234;14.320;2023-08-06T12:58:56;16.00;99.90
11320;DHT22;5715;48.234;14.320;2023-08-06T13:01:44;15.90;99.90
11320;DHT22;5715;48.234;14.320;2023-08-06T13:04:32;15.70;99.90
11320;DHT22;5715;48.234;14.320;2023-08-06T13:07:21;15.50;99.90
11320;DHT22;5715;48.234;14.320;2023-08-06T13:10:09;15.40;99.90
11320;DHT22;5715;48.234;14.320;2023-08-06T13:12:56;15.30;99.90
11320;DHT22;5715;48.234;14.320;2023-08-06T13:15:44;15.20;99.90
11320;DHT22;5715;48.234;14.320;2023-08-06T13:18:32;15.20;99.90
11320;DHT22;5715;48.234;14.320;2023-08-06T13:21:19;15.30;99.90
11320;DHT22;5715;48.234;14.320;2023-08-06T13:24:08;15.50;99.90
11320;DHT22;5715;48.234;14.320;2023-08-06T13:26:56;15.70;99.90
11320;DHT22;5715;48.234;14.320;2023-08-06T13:29:43;15.90;99.90
11320;DHT22;5715;48.234;14.320;2023-08-06T13:32:31;16.10;99.90
11320;DHT22;5715;48.234;14.320;2023-08-06T13:35:20;16.30;99.90
11320;DHT22;5715;48.234;14.320;2023-08-06T13:38:07;16.50;99.90
11320;DHT22;5715;48.234;14.320;2023-08-06T13:40:55;16.60;99.90
11320;DHT22;5715;48.234;14.320;2023-08-06T13:43:42;16.70;99.90
11320;DHT22;5715;48.234;14.320;2023-08-06T13:46:31;16.80;99.90
11320;DHT22;5715;48.234;14.320;2023-08-06T13:49:19;16.90;99.90
11320;DHT22;5715;48.234;14.320;2023-08-06T13:52:06;17.10;99.90
11320;DHT22;5715;48.234;14.320;2023-08-06T13:55:08;17.00;99.90
11320;DHT22;5715;48.234;14.320;2023-08-06T13:57:56;16.90;99.90
11320;DHT22;5715;48.234;14.320;2023-08-06T14:00:44;16.80;99.90
11320;DHT22;5715;48.234;14.320;2023-08-06T14:03:31;16.70;99.90
11320;DHT22;5715;48.234;14.320;2023-08-06T14:06:19;16.70;99.90
11320;DHT22;5715;48.234;14.320;2023-08-06T14:09:07;16.50;99.90
11320;DHT22;5715;48.234;14.320;2023-08-06T14:11:55;16.40;99.90
11320;DHT22;5715;48.234;14.320;2023-08-06T14:14:42;16.40;99.90
11320;DHT22;5715;48.234;14.320;2023-08-06T14:17:30;16.70;99.90
11320;DHT22;5715;48.234;14.320;2023-08-06T14:20:18;17.00;99.90
11320;DHT22;5715;48.234;14.320;2023-08-06T14:23:05;17.10;99.90
11320;DHT22;5715;48.234;14.320;2023-08-06T14:25:53;17.10;99.90
11320;DHT22;5715;48.234;14.320;2023-08-06T14:28:41;17.10;99.90
11320;DHT22;5715;48.234;14.320;2023-08-06T14:31:28;17.10;99.90
11320;DHT22;5715;48.234;14.320;2023-08-06T14:34:16;17.00;99.90
11320;DHT22;5715;48.234;14.320;2023-08-06T14:37:04;16.90;99.90
11320;DHT22;5715;48.234;14.320;2023-08-06T14:39:52;16.80;99.90
11320;DHT22;5715;48.234;14.320;2023-08-06T14:42:39;16.60;99.90
11320;DHT22;5715;48.234;14.320;2023-08-06T14:45:27;16.50;99.90
11320;DHT22;5715;48.234;14.320;2023-08-06T14:48:14;16.60;99.90
11320;DHT22;5715;48.234;14.320;2023-08-06T14:51:02;16.80;99.90
11320;DHT22;5715;48.234;14.320;2023-08-06T14:53:50;16.90;99.90
11320;DHT22;5715;48.234;14.320;2023-08-06T14:56:37;17.40;99.90
11320;DHT22;5715;48.234;14.320;2023-08-06T14:59:25;17.70;99.90
11320;DHT22;5715;48.234;14.320;2023-08-06T15:02:13;18.00;99.90
11320;DHT22;5715;48.234;14.320;2023-08-06T15:05:00;18.30;99.90
11320;DHT22;5715;48.234;14.320;2023-08-06T15:07:48;18.50;99.90
11320;DHT22;5715;48.234;14.320;2023-08-06T15:10:36;18.70;99.90
11320;DHT22;5715;48.234;14.320;2023-08-06T15:13:23;18.90;99.90
11320;DHT22;5715;48.234;14.320;2023-08-06T15:16:11;19.00;99.90
11320;DHT22;5715;48.234;14.320;2023-08-06T15:18:58;19.10;99.90
11320;DHT22;5715;48.234;14.320;2023-08-06T15:21:46;18.90;99.90
11320;DHT22;5715;48.234;14.320;2023-08-06T15:24:34;18.70;99.90
11320;DHT22;5715;48.234;14.320;2023-08-06T15:27:23;18.60;99.90
11320;DHT22;5715;48.234;14.320;2023-08-06T15:30:11;18.40;99.90
11320;DHT22;5715;48.234;14.320;2023-08-06T15:32:59;18.30;99.90
11320;DHT22;5715;48.234;14.320;2023-08-06T15:35:47;18.20;99.90
11320;DHT22;5715;48.234;14.320;2023-08-06T15:38:35;17.90;99.90
11320;DHT22;5715;48.234;14.320;2023-08-06T15:41:23;17.70;99.90
11320;DHT22;5715;48.234;14.320;2023-08-06T15:44:10;17.50;99.90
11320;DHT22;5715;48.234;14.320;2023-08-06T15:46:58;17.30;99.90
11320;DHT22;5715;48.234;14.320;2023-08-06T15:49:45;17.30;99.90
11320;DHT22;5715;48.234;14.320;2023-08-06T15:52:33;17.30;99.90
11320;DHT22;5715;48.234;14.320;2023-08-06T15:55:21;17.30;99.90
11320;DHT22;5715;48.234;14.320;2023-08-06T15:58:09;17.30;99.90
11320;DHT22;5715;48.234;14.320;2023-08-06T16:00:56;17.20;99.90
11320;DHT22;5715;48.234;14.320;2023-08-06T16:03:44;17.20;99.90
11320;DHT22;5715;48.234;14.320;2023-08-06T16:06:32;17.30;99.90
11320;DHT22;5715;48.234;14.320;2023-08-06T16:09:20;17.40;99.90
11320;DHT22;5715;48.234;14.320;2023-08-06T16:12:11;17.60;99.90
11320;DHT22;5715;48.234;14.320;2023-08-06T16:14:58;17.60;99.90
11320;DHT22;5715;48.234;14.320;2023-08-06T16:17:46;17.70;99.90
11320;DHT22;5715;48.234;14.320;2023-08-06T16:20:34;17.70;99.90
11320;DHT22;5715;48.234;14.320;2023-08-06T16:23:21;18.00;99.90
11320;DHT22;5715;48.234;14.320;2023-08-06T16:26:10;17.90;99.90
11320;DHT22;5715;48.234;14.320;2023-08-06T16:28:57;17.70;99.90
11320;DHT22;5715;48.234;14.320;2023-08-06T16:31:45;17.60;99.90
11320;DHT22;5715;48.234;14.320;2023-08-06T16:34:33;17.40;99.90
11320;DHT22;5715;48.234;14.320;2023-08-06T16:37:20;17.30;99.90
11320;DHT22;5715;48.234;14.320;2023-08-06T16:40:08;17.20;99.90
11320;DHT22;5715;48.234;14.320;2023-08-06T16:42:56;17.10;99.90
11320;DHT22;5715;48.234;14.320;2023-08-06T16:45:44;17.00;99.90
11320;DHT22;5715;48.234;14.320;2023-08-06T16:48:31;16.90;99.90
11320;DHT22;5715;48.234;14.320;2023-08-06T16:51:20;16.80;99.90
11320;DHT22;5715;48.234;14.320;2023-08-06T16:54:08;16.70;99.90
11320;DHT22;5715;48.234;14.320;2023-08-06T16:56:56;16.60;99.90
11320;DHT22;5715;48.234;14.320;2023-08-06T16:59:46;16.60;99.90
11320;DHT22;5715;48.234;14.320;2023-08-06T17:02:34;16.50;99.90
11320;DHT22;5715;48.234;14.320;2023-08-06T17:05:21;16.30;99.90
11320;DHT22;5715;48.234;14.320;2023-08-06T17:08:09;16.30;99.90
11320;DHT22;5715;48.234;14.320;2023-08-06T17:10:57;16.10;99.90
11320;DHT22;5715;48.234;14.320;2023-08-06T17:13:44;16.10;99.90
11320;DHT22;5715;48.234;14.320;2023-08-06T17:16:32;15.90;99.90
11320;DHT22;5715;48.234;14.320;2023-08-06T17:19:20;15.70;99.90
11320;DHT22;5715;48.234;14.320;2023-08-06T17:22:07;15.50;99.90
11320;DHT22;5715;48.234;14.320;2023-08-06T17:24:55;15.20;99.90
11320;DHT22;5715;48.234;14.320;2023-08-06T17:27:42;14.80;99.90
11320;DHT22;5715;48.234;14.320;2023-08-06T17:30:31;14.60;99.90
11320;DHT22;5715;48.234;14.320;2023-08-06T17:33:18;14.40;99.90
11320;DHT22;5715;48.234;14.320;2023-08-06T17:36:06;14.30;99.90
11320;DHT22;5715;48.234;14.320;2023-08-06T17:38:53;14.20;99.90
11320;DHT22;5715;48.234;14.320;2023-08-06T17:41:41;14.20;99.90
11320;DHT22;5715;48.234;14.320;2023-08-06T17:44:32;14.20;99.90
11320;DHT22;5715;48.234;14.320;2023-08-06T17:47:20;14.20;99.90
11320;DHT22;5715;48.234;14.320;2023-08-06T17:50:22;14.30;99.90
11320;DHT22;5715;48.234;14.320;2023-08-06T17:53:10;14.30;99.90
11320;DHT22;5715;48.234;14.320;2023-08-06T17:55:57;14.30;99.90
11320;DHT22;5715;48.234;14.320;2023-08-06T17:58:48;14.30;99.90